Time;durP1;ratioP1;P1;durP2;ratioP2;P2;SDS_P1;SDS_P2;PMS_P1;PMS_P2;Temp;Humidity;BMP_temperature;BMP_pressure;BME280_temperature;BME280_humidity;BME280_pressure;Samples;Min_cycle;Max_cycle;Signal;HPM_P1;HPM_P2
2022/09/04 00:01:02;;;;;;;;;14.25;11.50;;;;;21.35;55.67;100993.31;4976787;28;45268;-52
2022/09/04 00:03:27;;;;;;;;;11.00;9.00;;;;;21.30;55.93;100994.97;4976676;28;45490;-52
2022/09/04 00:05:57;;;;;;;;;10.00;8.25;;;;;21.24;55.58;101004.75;4976786;28;45408;-50
2022/09/04 00:08:59;;;;;;;;;13.50;11.75;;;;;21.17;56.14;101004.75;4976538;28;45343;-53
2022/09/04 00:11:43;;;;;;;;;9.25;8.75;;;;;21.11;55.84;101000.19;4976891;28;45403;-52
2022/09/04 00:14:18;;;;;;;;;9.00;9.00;;;;;21.09;56.15;101014.97;4976987;28;45626;-59
2022/09/04 00:16:53;;;;;;;;;13.00;12.50;;;;;21.01;56.37;101004.34;4976151;28;47410;-50
2022/09/04 00:19:22;;;;;;;;;15.75;12.75;;;;;21.02;56.93;101014.97;4976476;28;45403;-51
2022/09/04 00:21:53;;;;;;;;;11.00;11.00;;;;;20.96;56.80;101023.09;4976875;28;45245;-53
2022/09/04 00:24:29;;;;;;;;;14.50;13.00;;;;;20.91;56.48;101018.31;4976839;28;45525;-51
2022/09/04 00:26:58;;;;;;;;;16.50;11.00;;;;;20.90;57.19;101027.47;4976165;28;46207;-51
2022/09/04 00:29:41;;;;;;;;;15.00;13.25;;;;;20.88;57.00;101021.41;4976370;28;45347;-58
2022/09/04 00:32:19;;;;;;;;;14.25;11.75;;;;;20.86;56.74;101024.34;4978116;28;45421;-59
2022/09/04 00:34:50;;;;;;;;;9.50;9.50;;;;;20.84;56.91;101034.53;4976832;28;45533;-59
2022/09/04 00:37:21;;;;;;;;;14.25;12.75;;;;;20.79;57.30;101036.19;4975965;28;45880;-58
2022/09/04 00:39:53;;;;;;;;;15.50;13.00;;;;;20.76;56.93;101034.72;4976294;28;45518;-54
2022/09/04 00:43:01;;;;;;;;;17.75;14.00;;;;;20.72;56.37;101029.94;4976434;28;45364;-57
2022/09/04 00:46:04;;;;;;;;;15.50;13.75;;;;;20.68;56.98;101041.16;4976387;28;45376;-57
2022/09/04 00:48:38;;;;;;;;;10.75;10.75;;;;;20.63;57.36;101040.94;4976145;28;46199;-51
2022/09/04 00:51:22;;;;;;;;;11.75;9.50;;;;;20.58;57.15;101046.13;4975510;28;45255;-60
2022/09/04 00:54:14;;;;;;;;;13.75;13.75;;;;;20.55;57.58;101041.13;4976211;28;45174;-59
2022/09/04 00:57:01;;;;;;;;;12.00;11.25;;;;;20.52;57.68;101046.09;4976213;28;45411;-58
2022/09/04 00:59:35;;;;;;;;;8.50;8.50;;;;;20.48;57.47;101045.72;4975807;28;45279;-56
2022/09/04 01:02:25;;;;;;;;;14.75;10.75;;;;;20.44;57.44;101049.81;4977096;28;45310;-58
2022/09/04 01:05:06;;;;;;;;;14.00;10.75;;;;;20.42;57.15;101047.31;4976245;28;45418;-57
2022/09/04 01:07:46;;;;;;;;;13.25;11.50;;;;;20.42;57.45;101051.88;4976317;28;45466;-57
2022/09/04 01:10:21;;;;;;;;;11.75;10.25;;;;;20.37;57.22;101055.19;4975646;28;46352;-55
2022/09/04 01:13:02;;;;;;;;;13.00;11.00;;;;;20.31;57.77;101060.56;4975587;28;45600;-54
2022/09/04 01:15:42;;;;;;;;;11.25;9.25;;;;;20.33;57.88;101061.22;4975854;28;45322;-55
2022/09/04 01:18:36;;;;;;;;;11.50;10.50;;;;;20.28;57.41;101069.09;4975966;28;45520;-53
2022/09/04 01:21:29;;;;;;;;;10.75;9.00;;;;;20.24;57.44;101057.88;4959717;28;47103;-53
2022/09/04 01:24:18;;;;;;;;;12.00;10.75;;;;;20.21;57.41;101066.38;4975543;28;45369;-56
2022/09/04 01:27:28;;;;;;;;;12.75;11.50;;;;;20.17;57.63;101057.84;4975784;28;45323;-55
2022/09/04 01:30:10;;;;;;;;;13.50;9.75;;;;;20.16;57.34;101069.69;4970473;28;45317;-53
2022/09/04 01:32:47;;;;;;;;;9.25;9.00;;;;;20.15;57.38;101073.41;4975470;28;46277;-54
2022/09/04 01:35:36;;;;;;;;;11.00;10.50;;;;;20.13;56.59;101078.16;4974221;28;45165;-58
2022/09/04 01:38:32;;;;;;;;;8.50;8.50;;;;;20.09;56.77;101068.81;4975586;28;45469;-57
2022/09/04 01:41:10;;;;;;;;;11.50;9.00;;;;;20.07;56.42;101072.75;4975762;28;45373;-48
2022/09/04 01:43:36;;;;;;;;;9.00;8.75;;;;;20.08;56.71;101074.41;4975550;28;47210;-54
2022/09/04 01:46:19;;;;;;;;;10.75;9.50;;;;;20.05;56.71;101081.03;4975560;28;45286;-57
2022/09/04 01:48:54;;;;;;;;;8.25;7.50;;;;;20.04;56.55;101075.84;4975975;28;45332;-51
2022/09/04 01:51:55;;;;;;;;;7.00;7.00;;;;;19.97;56.70;101062.31;4976487;28;45410;-56
2022/09/04 01:54:38;;;;;;;;;11.75;7.75;;;;;20.02;56.44;101080.63;4975224;28;46092;-52
2022/09/04 01:57:04;;;;;;;;;7.75;7.75;;;;;20.03;55.91;101079.59;4975383;28;45418;-50
2022/09/04 01:59:51;;;;;;;;;9.00;6.75;;;;;20.02;55.80;101078.75;4975542;28;45306;-51
2022/09/04 02:02:19;;;;;;;;;6.00;6.00;;;;;20.00;55.72;101086.22;4975617;28;45464;-57
2022/09/04 02:04:58;;;;;;;;;8.25;7.00;;;;;19.99;55.38;101081.84;4975171;28;47252;-50
2022/09/04 02:07:43;;;;;;;;;6.75;5.00;;;;;19.96;55.52;101090.34;4975344;28;45232;-50
2022/09/04 02:10:21;;;;;;;;;7.00;5.00;;;;;19.94;55.51;101087.88;4974304;28;45309;-52
2022/09/04 02:12:58;;;;;;;;;7.25;7.25;;;;;19.94;55.53;101093.25;4975698;28;45560;-51
2022/09/04 02:15:36;;;;;;;;;7.75;6.75;;;;;19.92;55.38;101095.31;4975084;28;46644;-50
2022/09/04 02:18:26;;;;;;;;;5.50;5.25;;;;;19.88;55.30;101098.63;4974825;28;45418;-58
2022/09/04 02:21:01;;;;;;;;;10.00;8.50;;;;;19.82;55.55;101096.72;4975114;28;45484;-50
2022/09/04 02:24:03;;;;;;;;;7.00;7.00;;;;;19.79;55.16;101099.81;4975320;28;45493;-50
2022/09/04 02:27:04;;;;;;;;;7.50;7.00;;;;;19.76;55.44;101100.19;4974672;28;47261;-48
2022/09/04 02:29:39;;;;;;;;;6.25;6.25;;;;;19.77;55.52;101104.59;4974974;28;45358;-51
2022/09/04 02:32:17;;;;;;;;;9.25;6.50;;;;;19.75;55.25;101103.94;4975023;28;45260;-52
2022/09/04 02:34:48;;;;;;;;;6.75;6.75;;;;;19.73;55.40;101104.16;4975183;28;45242;-48
2022/09/04 02:37:32;;;;;;;;;9.25;6.25;;;;;19.69;55.73;101109.09;4974724;28;46236;-51
2022/09/04 02:40:30;;;;;;;;;7.00;7.00;;;;;19.71;55.76;101110.75;4974982;28;45319;-49
2022/09/04 02:43:03;;;;;;;;;6.00;6.00;;;;;19.70;55.61;101112.63;4975125;28;45194;-53
2022/09/04 02:46:00;;;;;;;;;10.00;7.00;;;;;19.69;55.71;101102.88;4975181;28;45298;-51
2022/09/04 02:49:01;;;;;;;;;4.50;4.50;;;;;19.71;55.41;101114.28;5034468;28;47015;-54
2022/09/04 02:51:32;;;;;;;;;8.00;6.00;;;;;19.72;55.29;101121.38;5034543;28;45509;-51
2022/09/04 02:54:06;;;;;;;;;5.00;5.00;;;;;19.69;54.92;101119.91;5034848;28;45397;-54
2022/09/04 02:56:50;;;;;;;;;8.00;6.75;;;;;19.67;54.98;101124.66;5034891;28;45341;-50
2022/09/04 02:59:25;;;;;;;;;7.00;6.75;;;;;19.63;55.08;101115.28;5034412;28;46321;-49
2022/09/04 03:01:59;;;;;;;;;5.00;5.00;;;;;19.65;54.88;101124.03;5034651;28;45352;-51
2022/09/04 03:04:51;;;;;;;;;6.00;6.00;;;;;19.59;55.16;101127.50;5034373;28;45557;-54
2022/09/04 03:07:23;;;;;;;;;7.50;5.25;;;;;19.61;54.89;101122.75;5034707;28;45368;-53
2022/09/04 03:10:02;;;;;;;;;5.00;5.00;;;;;19.56;55.05;101121.66;5034510;28;45300;-52
2022/09/04 03:12:43;;;;;;;;;5.75;5.75;;;;;19.58;55.04;101117.72;5034247;28;45516;-54
2022/09/04 03:15:23;;;;;;;;;6.00;6.00;;;;;19.60;55.04;101123.75;5035515;28;45607;-52
2022/09/04 03:18:00;;;;;;;;;7.75;6.00;;;;;19.59;55.00;101122.09;5037876;28;45462;-54
2022/09/04 03:20:29;;;;;;;;;8.00;6.00;;;;;19.55;54.73;101120.81;5037894;28;46146;-55
2022/09/04 03:23:13;;;;;;;;;7.00;7.00;;;;;19.59;54.74;101124.78;5037947;28;45423;-54
2022/09/04 03:26:19;;;;;;;;;5.00;5.00;;;;;19.61;54.77;101132.72;5002536;28;45295;-52
2022/09/04 03:28:59;;;;;;;;;6.25;6.25;;;;;19.62;54.71;101132.50;4955932;28;45269;-51
2022/09/04 03:31:57;;;;;;;;;4.75;4.75;;;;;19.68;54.43;101130.91;4939511;28;46554;-52
2022/09/04 03:34:40;;;;;;;;;6.50;5.00;;;;;19.63;54.06;101103.66;4955381;28;45479;-52
2022/09/04 03:37:23;;;;;;;;;7.00;6.50;;;;;19.83;53.66;101131.59;4955393;28;45305;-53
2022/09/04 03:40:17;;;;;;;;;6.75;5.75;;;;;19.92;53.33;101129.59;4955970;28;45479;-53
2022/09/04 03:42:42;;;;;;;;;5.75;5.00;;;;;20.00;53.36;101123.19;4955528;28;46223;-52
2022/09/04 03:45:36;;;;;;;;;10.25;5.75;;;;;20.06;53.09;101127.81;4955423;28;45473;-51
2022/09/04 03:48:52;;;;;;;;;6.50;5.00;;;;;20.11;53.16;101128.03;4955530;28;45332;-51
2022/09/04 03:51:26;;;;;;;;;7.25;5.75;;;;;20.10;52.90;101135.31;4916930;28;45496;-50
2022/09/04 03:54:22;;;;;;;;;7.00;5.00;;;;;20.11;52.80;101131.56;4916723;28;47156;-48
2022/09/04 03:57:15;;;;;;;;;4.00;4.00;;;;;20.12;52.51;101129.69;4916585;28;45428;-52
2022/09/04 04:00:03;;;;;;;;;6.00;5.25;;;;;20.14;52.71;101138.44;4916808;28;45493;-52
2022/09/04 04:03:06;;;;;;;;;5.75;5.00;;;;;20.14;52.44;101136.59;4924813;28;45336;-53
2022/09/04 04:05:44;;;;;;;;;7.50;6.25;;;;;20.12;52.65;101138.63;4935689;28;45492;-50
2022/09/04 04:08:27;;;;;;;;;7.25;6.75;;;;;20.12;52.65;101138.63;4936873;28;45525;-52
2022/09/04 04:11:09;;;;;;;;;6.00;4.00;;;;;20.16;52.63;101144.47;4919590;28;45404;-57
2022/09/04 04:13:53;;;;;;;;;5.75;5.75;;;;;20.19;52.79;101144.91;4935969;28;45425;-49
2022/09/04 04:16:58;;;;;;;;;5.25;5.25;;;;;20.25;52.92;101142.44;4935808;28;46444;-49
2022/09/04 04:19:43;;;;;;;;;6.00;6.00;;;;;20.29;52.46;101149.13;4935478;28;45280;-49
2022/09/04 04:22:20;;;;;;;;;7.00;6.00;;;;;20.34;52.51;101150.16;4958390;28;45427;-57
2022/09/04 04:25:21;;;;;;;;;6.25;5.00;;;;;20.36;52.56;101148.13;4976923;28;45403;-48
2022/09/04 04:27:59;;;;;;;;;6.50;5.50;;;;;20.37;52.68;101148.94;4975169;28;45381;-50
2022/09/04 04:30:34;;;;;;;;;7.00;7.00;;;;;20.34;52.79;101143.94;4976293;28;45413;-57
2022/09/04 04:33:20;;;;;;;;;5.25;4.50;;;;;20.36;52.66;101148.13;4976567;28;45258;-48
2022/09/04 04:36:05;;;;;;;;;7.25;6.25;;;;;20.33;52.64;101156.59;4976696;28;45446;-54
2022/09/04 04:38:55;;;;;;;;;7.00;7.00;;;;;20.27;52.89;101156.56;4976265;28;46242;-53
2022/09/04 04:42:04;;;;;;;;;8.00;6.00;;;;;20.15;53.14;101154.44;4976390;28;45277;-52
2022/09/04 04:48:16;;;;;;;;;9.50;7.00;;;;;20.04;53.47;101168.50;4976671;28;45549;-53
2022/09/04 04:51:11;;;;;;;;;9.75;8.00;;;;;19.96;53.50;101165.97;4976159;28;46180;-57
2022/09/04 04:54:14;;;;;;;;;7.00;6.75;;;;;19.87;53.79;101167.97;4977784;28;45431;-57
2022/09/04 04:57:07;;;;;;;;;12.00;9.50;;;;;19.82;53.98;101166.91;4976050;28;45378;-57
2022/09/04 04:59:45;;;;;;;;;12.00;6.50;;;;;19.76;54.34;101173.91;4976349;28;45331;-56
2022/09/04 05:02:29;;;;;;;;;8.25;8.00;;;;;19.73;54.00;101178.91;4976052;28;47181;-56
2022/09/04 05:04:56;;;;;;;;;10.25;9.50;;;;;19.69;54.67;101184.69;4975964;28;45289;-56
2022/09/04 05:07:40;;;;;;;;;10.00;8.50;;;;;19.65;54.67;101186.09;4976349;28;45458;-59
2022/09/04 05:10:24;;;;;;;;;8.75;8.50;;;;;19.62;54.98;101186.47;4976212;28;45444;-55
2022/09/04 05:12:57;;;;;;;;;7.00;7.00;;;;;19.54;55.15;101178.50;4975802;28;46195;-53
2022/09/04 05:15:46;;;;;;;;;10.00;10.00;;;;;19.58;54.93;101189.75;4976028;28;45387;-55
2022/09/04 05:18:33;;;;;;;;;7.00;7.00;;;;;19.57;55.02;101190.78;4975961;28;45327;-57
2022/09/04 05:21:32;;;;;;;;;13.75;10.75;;;;;19.56;55.73;101189.13;4975772;28;45469;-54
2022/09/04 05:24:09;;;;;;;;;7.00;6.00;;;;;19.60;55.76;101195.78;4953815;28;47209;-57
2022/09/04 05:26:34;;;;;;;;;10.50;9.25;;;;;19.59;56.30;101207.59;4954211;28;45369;-56
2022/09/04 05:29:24;;;;;;;;;11.00;10.00;;;;;19.58;56.07;101206.75;4954371;28;45352;-58
2022/09/04 05:32:00;;;;;;;;;10.50;9.00;;;;;19.57;56.53;101215.91;4954448;28;45326;-57
2022/09/04 05:34:39;;;;;;;;;8.00;8.00;;;;;19.55;56.21;101211.72;4953714;28;45795;-61
2022/09/04 05:37:26;;;;;;;;;10.50;9.25;;;;;19.48;56.21;101208.97;4953854;28;45464;-57
2022/09/04 05:40:14;;;;;;;;;8.00;8.00;;;;;19.48;56.53;101225.16;4954324;28;45404;-56
2022/09/04 05:43:01;;;;;;;;;7.00;5.50;;;;;19.57;56.37;101234.78;4954328;28;45471;-51
2022/09/04 05:46:06;;;;;;;;;10.50;8.75;;;;;19.62;56.06;101229.66;4953790;28;47317;-58
2022/09/04 05:49:10;;;;;;;;;9.25;9.25;;;;;19.65;56.08;101239.25;4953885;28;45340;-51
2022/09/04 05:52:14;;;;;;;;;8.00;7.00;;;;;19.61;56.15;101241.50;4953856;28;45409;-48
2022/09/04 05:55:07;;;;;;;;;6.50;6.50;;;;;19.53;56.39;101246.16;4954042;28;45487;-49
2022/09/04 05:57:57;;;;;;;;;10.50;10.25;;;;;19.56;56.70;101249.31;4953607;28;46398;-57
2022/09/04 06:00:25;;;;;;;;;10.00;10.00;;;;;19.56;56.80;101248.47;4961586;28;45295;-54
2022/09/04 06:03:15;;;;;;;;;8.50;7.25;;;;;19.53;57.04;101247.00;4975488;28;45456;-48
2022/09/04 06:06:04;;;;;;;;;10.50;9.00;;;;;19.51;57.18;101257.16;4975414;28;45368;-56
2022/09/04 06:08:40;;;;;;;;;9.50;9.50;;;;;19.45;57.23;101234.47;4975144;28;47177;-51
2022/09/04 06:11:45;;;;;;;;;14.75;11.00;;;;;19.54;56.61;101258.63;4975323;28;45479;-50
2022/09/04 06:14:31;;;;;;;;;9.25;9.25;;;;;19.50;56.85;101266.25;4974919;28;45318;-55
2022/09/04 06:16:56;;;;;;;;;11.25;11.00;;;;;19.51;57.07;101261.69;4975279;28;45542;-53
2022/09/04 06:19:43;;;;;;;;;10.50;8.50;;;;;19.48;57.04;101271.03;4975060;28;46232;-59
2022/09/04 06:22:49;;;;;;;;;10.00;8.00;;;;;19.49;57.13;101270.00;4975279;28;45369;-53
2022/09/04 06:25:42;;;;;;;;;10.50;8.25;;;;;19.54;56.93;101262.16;4975192;28;45396;-59
2022/09/04 06:28:36;;;;;;;;;12.75;7.75;;;;;19.54;56.88;101262.16;4975223;28;45302;-58
2022/09/04 06:31:07;;;;;;;;;9.00;8.00;;;;;19.56;56.64;101270.06;4974687;28;46382;-53
2022/09/04 06:33:54;;;;;;;;;9.25;9.25;;;;;19.57;56.71;101279.81;4975175;28;45235;-58
2022/09/04 06:36:34;;;;;;;;;10.00;8.00;;;;;19.65;56.49;101277.88;4975109;28;45433;-55
2022/09/04 06:39:21;;;;;;;;;11.25;9.00;;;;;19.79;56.20;101286.91;4975124;28;45392;-53
2022/09/04 06:42:06;;;;;;;;;9.00;7.75;;;;;19.96;56.23;101283.94;4975103;28;47190;-60
2022/09/04 06:44:38;;;;;;;;;10.00;9.75;;;;;20.08;55.64;101277.81;4973813;28;45292;-58
2022/09/04 06:47:03;;;;;;;;;8.75;7.75;;;;;20.14;55.55;101295.09;4974947;28;45500;-59
2022/09/04 06:50:06;;;;;;;;;9.00;9.00;;;;;20.25;55.29;101291.03;4973820;28;45258;-59
2022/09/04 06:52:44;;;;;;;;;12.25;11.25;;;;;20.39;54.90;101290.06;4976491;28;45420;-59
2022/09/04 06:55:27;;;;;;;;;12.75;11.00;;;;;20.54;54.73;101304.34;4974704;28;45347;-58
2022/09/04 06:58:17;;;;;;;;;12.75;9.50;;;;;20.73;53.63;101288.44;4974735;28;45425;-53
2022/09/04 07:00:52;;;;;;;;;14.00;12.00;;;;;20.94;53.48;101288.31;4974861;28;45367;-57
2022/09/04 07:03:46;;;;;;;;;10.00;10.00;;;;;21.09;53.60;101290.88;4974658;28;45431;-59
2022/09/04 07:06:14;;;;;;;;;11.75;8.75;;;;;21.26;53.17;101296.78;4974117;28;45509;-54
2022/09/04 07:08:53;;;;;;;;;14.00;11.25;;;;;21.63;52.52;101295.44;4974506;28;45218;-57
2022/09/04 07:11:55;;;;;;;;;10.25;10.25;;;;;22.21;50.97;101294.88;4974553;28;45446;-62
2022/09/04 07:14:39;;;;;;;;;9.75;8.25;;;;;22.42;50.13;101295.44;4974350;28;46250;-55
2022/09/04 07:17:19;;;;;;;;;10.50;9.25;;;;;22.59;49.90;101297.72;4974597;28;45750;-56
2022/09/04 07:20:24;;;;;;;;;11.50;9.75;;;;;23.12;48.80;101300.25;4974387;28;45336;-55
2022/09/04 07:23:38;;;;;;;;;13.50;12.25;;;;;23.82;47.92;101297.56;4974535;28;45359;-58
2022/09/04 07:26:09;;;;;;;;;9.00;9.00;;;;;24.19;46.75;101303.94;4952183;27;45429;-48
2022/09/04 07:28:50;;;;;;;;;10.80;10.00;;;;;25.17;44.14;101307.72;4952834;28;45346;-51
2022/09/04 07:31:25;;;;;;;;;15.00;10.00;;;;;26.23;42.59;101317.00;4952946;28;45611;-59
2022/09/04 07:34:12;;;;;;;;;11.25;8.00;;;;;27.07;40.95;101312.88;4952769;28;45574;-57
2022/09/04 07:37:08;;;;;;;;;9.80;7.60;;;;;27.09;40.35;101309.91;4952356;28;46645;-51
2022/09/04 07:39:48;;;;;;;;;7.40;6.60;;;;;27.39;41.41;101315.19;4952750;28;45388;-49
2022/09/04 07:42:23;;;;;;;;;8.60;8.20;;;;;27.72;38.77;101308.09;4952465;28;45431;-57
2022/09/04 07:44:59;;;;;;;;;9.20;9.00;;;;;28.83;38.31;101311.75;4952547;28;45532;-51
2022/09/04 07:47:35;;;;;;;;;9.80;9.40;;;;;29.41;36.13;101314.88;4952035;28;45892;-52
2022/09/04 07:50:18;;;;;;;;;8.20;6.80;;;;;30.12;34.45;101316.63;4952232;28;45653;-60
2022/09/04 07:53:06;;;;;;;;;10.40;8.00;;;;;31.06;33.34;101313.09;4952431;28;45538;-51
2022/09/04 07:55:39;;;;;;;;;9.20;7.40;;;;;32.22;31.88;101319.00;4951366;28;45594;-58
2022/09/04 07:58:27;;;;;;;;;8.20;8.20;;;;;32.23;31.60;101321.47;4953018;28;45422;-61
2022/09/04 08:01:01;;;;;;;;;9.60;7.80;;;;;32.76;32.18;101329.38;4952509;28;45383;-58
2022/09/04 08:03:35;;;;;;;;;8.60;8.00;;;;;33.61;29.09;101326.47;4974595;28;45479;-59
2022/09/04 08:06:19;;;;;;;;;8.00;6.80;;;;;33.18;30.60;101330.88;4977017;28;45366;-60
2022/09/04 08:08:47;;;;;;;;;11.80;8.80;;;;;34.19;28.43;101331.25;4976707;28;46301;-54
2022/09/04 08:11:27;;;;;;;;;7.00;7.00;;;;;33.47;29.24;101337.34;4976704;28;45265;-54
2022/09/04 08:14:01;;;;;;;;;10.80;8.40;;;;;34.31;28.33;101337.22;4976869;28;45390;-51
2022/09/04 08:16:41;;;;;;;;;7.20;5.80;;;;;35.29;27.37;101337.72;4977071;28;45511;-55
2022/09/04 08:19:40;;;;;;;;;7.60;7.00;;;;;34.55;27.26;101345.53;4976658;28;46863;-57
2022/09/04 08:22:11;;;;;;;;;9.60;7.80;;;;;35.03;26.99;101347.50;4976473;28;45516;-56
2022/09/04 08:24:59;;;;;;;;;7.60;7.40;;;;;35.54;26.70;101335.72;4976967;28;45365;-53
2022/09/04 08:27:37;;;;;;;;;7.00;7.00;;;;;35.91;26.50;101346.75;4977049;28;45307;-52
2022/09/04 08:30:06;;;;;;;;;8.20;7.80;;;;;35.97;25.87;101347.50;4976573;28;45934;-51
2022/09/04 08:32:56;;;;;;;;;7.20;7.00;;;;;35.66;25.92;101341.63;4976679;28;45302;-52
2022/09/04 08:35:38;;;;;;;;;6.40;6.00;;;;;35.11;26.82;101341.31;4976441;28;45477;-51
2022/09/04 08:38:21;;;;;;;;;5.60;5.00;;;;;35.02;26.62;101346.69;4976408;28;45196;-51
2022/09/04 08:41:11;;;;;;;;;5.80;5.80;;;;;35.28;26.98;101349.09;4976239;28;47197;-57
2022/09/04 08:44:12;;;;;;;;;7.20;5.80;;;;;35.53;26.53;101345.16;4976285;28;45349;-49
2022/09/04 08:46:47;;;;;;;;;7.80;6.20;;;;;35.54;26.17;101349.56;4954693;28;45338;-53
2022/09/04 08:49:52;;;;;;;;;9.40;6.00;;;;;35.53;26.43;101357.06;4954825;28;45526;-55
2022/09/04 08:52:36;;;;;;;;;5.80;5.80;;;;;35.87;25.14;101344.88;4954433;28;46849;-52
2022/09/04 08:55:29;;;;;;;;;5.80;4.20;;;;;36.19;25.12;101346.84;4954491;28;45420;-54
2022/09/04 08:58:15;;;;;;;;;7.20;5.60;;;;;36.43;25.10;101358.56;4938562;28;45452;-50
2022/09/04 09:00:46;;;;;;;;;4.20;4.20;;;;;36.80;24.23;101356.78;4954739;28;45579;-51
2022/09/04 09:03:35;;;;;;;;;5.00;5.00;;;;;36.92;23.64;101361.81;4954536;28;45438;-52
2022/09/04 09:06:27;;;;;;;;;4.20;4.00;;;;;37.74;24.22;101360.00;4954112;28;45602;-58
2022/09/04 09:09:14;;;;;;;;;5.40;4.00;;;;;39.06;21.19;101361.19;4915768;28;45400;-53
2022/09/04 09:11:54;;;;;;;;;6.80;6.40;;;;;41.09;19.73;101378.56;4916084;28;45432;-50
2022/09/04 09:14:54;;;;;;;;;5.00;4.80;;;;;43.28;18.11;101382.28;4914914;28;46153;-53
2022/09/04 09:17:38;;;;;;;;;5.00;3.00;;;;;44.88;16.09;101371.03;4918316;28;45414;-51
2022/09/04 09:20:53;;;;;;;;;4.00;4.00;;;;;46.01;15.36;101371.00;4920772;28;45507;-56
2022/09/04 09:23:40;;;;;;;;;2.80;2.80;;;;;46.84;14.53;101371.22;5016409;28;45387;-51
2022/09/04 09:26:20;;;;;;;;;3.60;1.60;;;;;47.03;15.99;101361.03;5015904;28;45400;-51
2022/09/04 09:29:18;;;;;;;;;1.40;1.20;;;;;47.30;12.86;101365.47;5016097;28;45469;-56
2022/09/04 09:32:15;;;;;;;;;5.80;5.00;;;;;47.90;16.39;101370.19;5016415;28;45286;-50
2022/09/04 09:35:08;;;;;;;;;4.40;3.80;;;;;48.29;13.55;101364.94;5016129;28;45341;-49
2022/09/04 09:37:55;;;;;;;;;2.80;2.80;;;;;48.94;13.39;101366.25;5015455;28;45497;-52
2022/09/04 09:40:38;;;;;;;;;4.60;3.20;;;;;48.82;12.45;101364.56;5015779;28;45379;-47
2022/09/04 09:43:25;;;;;;;;;3.20;3.20;;;;;49.02;12.56;101358.63;5015942;28;45459;-50
2022/09/04 09:46:28;;;;;;;;;2.40;2.40;;;;;49.45;12.27;101373.78;5025336;28;45357;-48
2022/09/04 09:49:24;;;;;;;;;2.80;2.00;;;;;49.86;11.87;101370.69;5035449;28;46035;-52
2022/09/04 09:52:37;;;;;;;;;3.80;2.00;;;;;50.17;12.87;101363.47;5035120;28;45423;-49
2022/09/04 09:55:39;;;;;;;;;3.20;2.80;;;;;50.78;11.34;101357.75;5034919;28;45435;-51
2022/09/04 09:58:47;;;;;;;;;3.00;3.00;;;;;51.39;10.56;101358.38;5027479;28;45366;-53
2022/09/04 10:01:42;;;;;;;;;3.40;3.40;;;;;51.58;10.17;101349.38;4953539;28;45470;-51
2022/09/04 10:04:27;;;;;;;;;5.00;3.40;;;;;51.54;12.86;101359.06;4954639;28;45480;-59
2022/09/04 10:07:27;;;;;;;;;3.20;3.20;;;;;50.95;12.25;101348.44;4953575;28;45406;-54
2022/09/04 10:10:26;;;;;;;;;3.00;1.20;;;;;50.71;11.55;101352.13;4953966;28;45560;-54
2022/09/04 10:13:16;;;;;;;;;1.60;1.60;;;;;50.57;11.74;101353.75;4953522;28;47158;-52
2022/09/04 10:16:02;;;;;;;;;4.40;3.00;;;;;50.48;11.27;101344.03;4953626;28;45451;-54
2022/09/04 10:18:39;;;;;;;;;2.20;2.20;;;;;50.93;11.86;101345.19;4953298;28;45227;-49
2022/09/04 10:21:27;;;;;;;;;2.40;2.40;;;;;50.91;10.96;101342.78;4954020;28;45348;-52
2022/09/04 10:24:04;;;;;;;;;2.60;1.20;;;;;51.67;11.64;101331.06;4897310;28;45446;-52
2022/09/04 10:26:44;;;;;;;;;4.60;4.60;;;;;51.61;10.99;101345.69;4896591;28;45397;-51
2022/09/04 10:29:45;;;;;;;;;3.00;1.60;;;;;50.75;10.17;101333.88;4896125;29;45504;-50
2022/09/04 10:32:19;;;;;;;;;3.20;2.60;;;;;51.42;11.07;101334.06;4917658;28;45431;-54
2022/09/04 10:35:08;;;;;;;;;3.00;3.00;;;;;51.60;10.43;101329.09;4917249;28;45489;-53
2022/09/04 10:37:52;;;;;;;;;4.40;3.00;;;;;50.91;11.73;101328.59;4895906;28;45960;-55
2022/09/04 10:40:51;;;;;;;;;3.60;3.20;;;;;50.70;11.18;101327.81;4821148;29;45682;-52
2022/09/04 10:43:22;;;;;;;;;3.60;3.60;;;;;50.48;11.93;101327.84;4821295;29;45619;-54
2022/09/04 10:46:26;;;;;;;;;2.20;2.20;;;;;50.35;11.96;101333.13;4820977;29;46207;-54
2022/09/04 10:49:06;;;;;;;;;3.20;2.00;;;;;50.83;11.34;101321.31;4785274;29;45521;-53
2022/09/04 10:51:50;;;;;;;;;2.00;2.00;;;;;50.91;11.67;101330.63;4784457;29;45380;-57
2022/09/04 10:54:30;;;;;;;;;2.80;2.80;;;;;50.66;11.77;101325.03;4784683;29;45394;-53
2022/09/04 10:57:07;;;;;;;;;2.40;2.40;;;;;50.22;11.58;101297.97;4784344;29;45673;-54
2022/09/04 10:59:51;;;;;;;;;3.00;3.00;;;;;51.19;11.10;101306.19;4784340;29;45617;-55
2022/09/04 11:02:21;;;;;;;;;3.00;3.00;;;;;51.89;10.50;101310.69;4858136;29;45402;-55
2022/09/04 11:05:18;;;;;;;;;2.60;2.60;;;;;51.62;11.47;101307.59;4858105;29;45518;-55
2022/09/04 11:07:55;;;;;;;;;3.00;1.80;;;;;51.57;10.39;101301.56;4857608;29;47311;-55
2022/09/04 11:10:46;;;;;;;;;3.00;2.40;;;;;51.42;10.39;101298.00;4909740;28;45415;-54
2022/09/04 11:13:37;;;;;;;;;4.60;3.60;;;;;51.95;10.00;101308.19;4974599;28;45288;-53
2022/09/04 11:16:34;;;;;;;;;4.00;4.00;;;;;52.16;10.53;101300.69;4975243;28;45373;-54
2022/09/04 11:19:38;;;;;;;;;3.80;3.80;;;;;52.54;10.49;101296.66;4974847;28;46030;-56
2022/09/04 11:22:20;;;;;;;;;1.80;1.80;;;;;52.04;11.30;101285.81;4974733;28;45389;-55
2022/09/04 11:25:18;;;;;;;;;2.20;2.20;;;;;51.83;11.70;101297.31;5000975;28;45426;-57
2022/09/04 11:28:01;;;;;;;;;6.80;2.60;;;;;51.54;11.55;101300.38;5014393;28;45488;-57
2022/09/04 11:30:52;;;;;;;;;3.40;2.00;;;;;51.23;10.63;101292.84;5013863;28;46496;-55
2022/09/04 11:33:46;;;;;;;;;3.40;3.40;;;;;51.10;10.92;101290.47;4994064;28;45451;-55
2022/09/04 11:36:28;;;;;;;;;3.80;2.80;;;;;50.90;11.96;101286.50;4995470;28;45369;-56
2022/09/04 11:39:12;;;;;;;;;2.80;2.80;;;;;50.26;10.62;101293.09;4997616;28;45646;-55
2022/09/04 11:41:56;;;;;;;;;4.00;2.40;;;;;49.79;11.30;101286.59;4980770;28;45638;-54
2022/09/04 11:44:51;;;;;;;;;4.40;4.20;;;;;49.04;11.77;101291.22;4996857;28;45414;-55
2022/09/04 11:47:49;;;;;;;;;4.00;3.00;;;;;48.35;11.84;101289.19;4997200;28;45401;-55
2022/09/04 11:50:36;;;;;;;;;2.20;2.20;;;;;48.22;12.13;101285.88;5005794;28;45489;-54
2022/09/04 11:53:32;;;;;;;;;4.80;3.40;;;;;48.10;12.60;101287.00;5037025;28;46510;-53
2022/09/04 11:55:57;;;;;;;;;2.40;2.40;;;;;48.21;12.58;101282.25;5037116;28;45479;-59
2022/09/04 11:58:41;;;;;;;;;3.50;3.50;;;;;48.05;12.51;101273.28;5037328;28;45408;-57
2022/09/04 12:01:23;;;;;;;;;3.40;3.40;;;;;47.60;12.50;101272.41;5037542;28;45318;-54
2022/09/04 12:04:21;;;;;;;;;4.00;4.00;;;;;47.59;12.91;101273.59;5037235;28;47138;-57
2022/09/04 12:07:12;;;;;;;;;7.20;4.00;;;;;47.65;12.73;101279.69;5037221;28;45370;-56
2022/09/04 12:09:59;;;;;;;;;4.00;3.00;;;;;47.60;13.05;101277.22;5037255;28;45421;-55
2022/09/04 12:12:33;;;;;;;;;2.40;1.60;;;;;47.17;13.01;101279.56;5039618;28;45272;-53
2022/09/04 12:15:07;;;;;;;;;4.00;1.80;;;;;46.54;13.56;101272.66;5039209;28;46886;-55
2022/09/04 12:18:00;;;;;;;;;3.00;3.00;;;;;45.96;14.21;101262.47;5039260;28;45704;-54
2022/09/04 12:20:44;;;;;;;;;4.20;3.80;;;;;45.37;14.49;101268.56;5039374;28;45292;-54
2022/09/04 12:23:15;;;;;;;;;3.60;2.40;;;;;45.00;14.60;101252.97;5039223;28;45587;-54
2022/09/04 12:26:00;;;;;;;;;2.80;2.00;;;;;43.82;15.58;101264.16;5038833;28;46012;-50
2022/09/04 12:28:40;;;;;;;;;2.00;2.00;;;;;41.52;17.03;101254.56;5038868;28;45203;-52
2022/09/04 12:31:33;;;;;;;;;3.80;3.20;;;;;39.57;18.44;101253.78;5038962;28;45480;-53
2022/09/04 12:34:02;;;;;;;;;3.20;3.20;;;;;38.51;19.58;101247.66;5039318;28;45388;-53
2022/09/04 12:36:46;;;;;;;;;4.00;3.40;;;;;37.50;20.59;101252.84;5038911;28;46072;-54
2022/09/04 12:39:14;;;;;;;;;4.40;3.00;;;;;36.62;21.96;101250.44;4983541;28;45269;-57
2022/09/04 12:41:46;;;;;;;;;1.00;1.00;;;;;35.91;22.49;101263.69;4976253;28;45189;-52
2022/09/04 12:44:42;;;;;;;;;3.60;3.60;;;;;35.01;23.17;101253.78;4976294;28;45465;-53
2022/09/04 12:47:27;;;;;;;;;4.40;3.20;;;;;34.39;24.18;101250.97;4974104;28;46334;-51